臺北終端管制區 - 桃園南區雷達席

METAR RCTP 161730Z 06012KT 4000 -RA BR SCT005 BKN009 BKN025 17/17 Q1013 NOSIG RMK A2993(D)=

站台狀態:Offline
最後更新:2022-05-17 01:30:01